createdAt,value
2019-05-28T00:00:01.634Z,18.40
2019-05-28T00:02:25.895Z,18.40
2019-05-28T00:04:56.665Z,18.40
2019-05-28T00:07:27.794Z,18.30
2019-05-28T00:09:58.616Z,18.30
2019-05-28T00:12:29.353Z,18.30
2019-05-28T00:15:00.514Z,18.20
2019-05-28T00:17:32.928Z,18.20
2019-05-28T00:20:03.745Z,18.20
2019-05-28T00:22:35.661Z,18.10
2019-05-28T00:25:07.977Z,18.10
2019-05-28T00:27:39.384Z,18.00
2019-05-28T00:30:19.734Z,18.00
2019-05-28T00:32:43.748Z,17.90
2019-05-28T00:35:16.224Z,17.90
2019-05-28T00:37:47.066Z,17.80
2019-05-28T00:40:17.977Z,17.80
2019-05-28T00:42:48.855Z,17.80
2019-05-28T00:45:20.261Z,17.80
2019-05-28T00:47:50.969Z,17.80
2019-05-28T00:50:21.728Z,17.80
2019-05-28T00:52:52.532Z,17.80
2019-05-28T00:55:23.237Z,17.80
2019-05-28T00:57:54.286Z,17.80
2019-05-28T01:00:46.301Z,17.80
2019-05-28T01:03:17.450Z,17.80
2019-05-28T01:05:48.534Z,17.80
2019-05-28T01:08:19.378Z,17.80
2019-05-28T01:10:50.164Z,17.70
2019-05-28T01:13:20.985Z,17.70
2019-05-28T01:15:52.154Z,17.70
2019-05-28T01:18:22.982Z,17.70
2019-05-28T01:20:53.799Z,17.70
2019-05-28T01:23:24.621Z,17.70
2019-05-28T01:25:55.401Z,17.70
2019-05-28T01:28:26.181Z,17.70
2019-05-28T01:31:00.528Z,17.70
2019-05-28T01:33:29.366Z,17.70
2019-05-28T01:36:00.100Z,17.70
2019-05-28T01:38:30.824Z,17.70
2019-05-28T01:41:01.531Z,17.70
2019-05-28T01:43:32.345Z,17.80
2019-05-28T01:46:03.125Z,17.80
2019-05-28T01:48:34.038Z,17.80
2019-05-28T01:51:04.836Z,17.80
2019-05-28T01:53:35.546Z,17.80
2019-05-28T01:56:07.330Z,17.90
2019-05-28T01:58:38.126Z,17.80
2019-05-28T02:01:12.810Z,17.80
2019-05-28T02:03:41.494Z,17.70
2019-05-28T02:06:12.302Z,17.70
2019-05-28T02:08:43.388Z,17.70
2019-05-28T02:11:14.696Z,17.60
2019-05-28T02:13:45.430Z,17.60
2019-05-28T02:16:16.242Z,17.60
2019-05-28T02:18:47.061Z,17.60
2019-05-28T02:21:17.770Z,17.50
2019-05-28T02:23:48.504Z,17.50
2019-05-28T02:26:19.581Z,17.50
2019-05-28T02:28:50.408Z,17.40
2019-05-28T02:31:27.683Z,17.40
2019-05-28T02:33:53.584Z,17.40
2019-05-28T02:36:24.295Z,17.30
2019-05-28T02:38:55.201Z,17.30
2019-05-28T02:41:26.005Z,17.20
2019-05-28T02:43:56.736Z,17.10
2019-05-28T02:46:27.512Z,17.00
2019-05-28T02:48:58.290Z,16.90
2019-05-28T02:51:29.465Z,16.80
2019-05-28T02:54:00.879Z,16.80
2019-05-28T02:56:33.069Z,16.70
2019-05-28T02:59:03.987Z,16.70
2019-05-28T03:01:44.368Z,16.60
2019-05-28T03:04:10.666Z,16.60
2019-05-28T03:06:44.407Z,16.50
2019-05-28T03:09:15.278Z,16.50
2019-05-28T03:11:46.049Z,16.60
2019-05-28T03:14:16.813Z,16.60
2019-05-28T03:16:50.050Z,16.60
2019-05-28T03:19:20.977Z,16.60
2019-05-28T03:21:51.852Z,16.70
2019-05-28T03:24:23.765Z,16.70
2019-05-28T03:26:54.476Z,16.70
2019-05-28T03:29:25.585Z,16.80
2019-05-28T03:32:07.704Z,16.80
2019-05-28T03:34:28.837Z,16.80
2019-05-28T03:37:01.829Z,16.80
2019-05-28T03:39:35.160Z,16.90
2019-05-28T03:42:05.977Z,16.90
2019-05-28T03:44:36.716Z,16.90
2019-05-28T03:47:07.750Z,17.00
2019-05-28T03:49:38.531Z,17.00
2019-05-28T03:52:09.340Z,17.00
2019-05-28T03:54:40.050Z,17.00
2019-05-28T03:57:10.845Z,17.00
2019-05-28T03:59:41.614Z,17.10
2019-05-28T04:02:23.103Z,17.10
2019-05-28T04:04:45.991Z,17.10
2019-05-28T04:07:16.774Z,17.10
2019-05-28T04:09:47.573Z,17.20
2019-05-28T04:12:18.377Z,17.20
2019-05-28T04:14:49.204Z,17.20
2019-05-28T04:17:19.962Z,17.20
2019-05-28T04:19:50.790Z,17.30
2019-05-28T04:22:23.014Z,17.30
2019-05-28T04:24:54.057Z,17.30
2019-05-28T04:27:24.852Z,17.30
2019-05-28T04:29:55.585Z,17.30
2019-05-28T04:32:39.449Z,17.30
2019-05-28T04:34:58.716Z,17.40
2019-05-28T04:37:29.562Z,17.40
2019-05-28T04:40:00.381Z,17.40
2019-05-28T04:42:31.441Z,17.50
2019-05-28T04:45:02.343Z,17.50
2019-05-28T04:47:34.325Z,17.50
2019-05-28T04:50:05.758Z,17.60
2019-05-28T04:52:36.610Z,17.60
2019-05-28T04:55:07.835Z,17.70
2019-05-28T04:57:38.621Z,17.70
2019-05-28T05:00:09.545Z,17.80
2019-05-28T05:02:57.304Z,17.80
2019-05-28T05:05:14.720Z,17.90
2019-05-28T05:07:45.537Z,17.90
2019-05-28T05:10:19.081Z,18.00
2019-05-28T05:12:49.098Z,18.00
2019-05-28T05:15:19.857Z,18.00
2019-05-28T05:17:50.691Z,17.90
2019-05-28T05:20:21.492Z,17.90
2019-05-28T05:22:52.258Z,17.90
2019-05-28T05:25:23.060Z,17.90
2019-05-28T05:27:54.145Z,17.90
2019-05-28T05:30:24.924Z,18.00
2019-05-28T05:32:55.750Z,18.00
2019-05-28T05:35:26.624Z,18.00
2019-05-28T05:37:57.429Z,18.00
2019-05-28T05:40:28.566Z,18.00
2019-05-28T05:42:59.352Z,18.00
2019-05-28T05:45:30.112Z,18.00
2019-05-28T05:48:01.330Z,18.00
2019-05-28T05:50:32.202Z,18.00
2019-05-28T05:53:03.030Z,18.10
2019-05-28T05:55:33.839Z,18.10
2019-05-28T05:58:04.697Z,18.20
2019-05-28T06:00:35.497Z,18.30
2019-05-28T06:03:06.316Z,18.40
2019-05-28T06:05:37.238Z,18.40
2019-05-28T06:08:08.044Z,18.50
2019-05-28T06:10:38.833Z,18.50
2019-05-28T06:13:09.943Z,18.50
2019-05-28T06:15:40.737Z,18.60
2019-05-28T06:18:11.486Z,18.70
2019-05-28T06:20:43.466Z,18.70
2019-05-28T06:23:14.308Z,18.80
2019-05-28T06:25:45.089Z,18.80
2019-05-28T06:28:16.384Z,18.90
2019-05-28T06:30:47.169Z,18.90
2019-05-28T06:33:18.206Z,19.00
2019-05-28T06:35:49.358Z,19.00
2019-05-28T06:38:20.259Z,19.10
2019-05-28T06:40:51.225Z,19.00
2019-05-28T06:43:22.358Z,19.00
2019-05-28T06:45:53.205Z,19.00
2019-05-28T06:48:25.018Z,19.00
2019-05-28T06:50:55.824Z,19.00
2019-05-28T06:53:27.083Z,19.00
2019-05-28T06:55:58.253Z,19.10
2019-05-28T06:58:39.546Z,19.30
2019-05-28T07:01:02.223Z,19.60
2019-05-28T07:03:33.552Z,19.90
2019-05-28T07:06:07.604Z,20.10
2019-05-28T07:08:36.925Z,20.40
2019-05-28T07:11:07.766Z,20.60
2019-05-28T07:13:38.588Z,20.80
2019-05-28T07:16:09.428Z,21.00
2019-05-28T07:18:40.285Z,21.20
2019-05-28T07:21:11.514Z,21.20
2019-05-28T07:23:42.421Z,21.40
2019-05-28T07:26:13.273Z,21.50
2019-05-28T07:28:44.497Z,21.50
2019-05-28T07:31:15.339Z,21.60
2019-05-28T07:33:46.222Z,21.60
2019-05-28T07:36:17.063Z,21.60
2019-05-28T07:38:48.266Z,21.50
2019-05-28T07:41:19.093Z,21.50
2019-05-28T07:43:49.901Z,21.40
2019-05-28T07:46:20.618Z,21.30
2019-05-28T07:48:51.464Z,21.20
2019-05-28T07:51:22.393Z,21.20
2019-05-28T07:53:53.117Z,21.30
2019-05-28T07:56:23.973Z,21.30
2019-05-28T07:58:55.133Z,21.50
2019-05-28T08:01:26.024Z,21.70
2019-05-28T08:03:56.833Z,21.80
2019-05-28T08:06:28.441Z,22.00
2019-05-28T08:08:59.312Z,22.10
2019-05-28T08:11:30.118Z,22.10
2019-05-28T08:14:00.914Z,21.90
2019-05-28T08:16:32.037Z,21.80
2019-05-28T08:19:02.922Z,21.70
2019-05-28T08:21:33.736Z,21.60
2019-05-28T08:24:04.649Z,21.50
2019-05-28T08:26:35.556Z,21.30
2019-05-28T08:29:06.359Z,21.10
2019-05-28T08:31:37.327Z,20.90
2019-05-28T08:34:08.220Z,20.70
2019-05-28T08:36:39.009Z,20.70
2019-05-28T08:39:09.784Z,20.60
2019-05-28T08:41:40.645Z,20.60
2019-05-28T08:44:11.811Z,20.50
2019-05-28T08:46:42.625Z,20.60
2019-05-28T08:49:13.454Z,20.70
2019-05-28T08:51:44.198Z,20.90
2019-05-28T08:54:16.205Z,21.10
2019-05-28T08:56:47.017Z,21.40
2019-05-28T08:59:17.785Z,21.60
2019-05-28T09:01:48.606Z,21.70
2019-05-28T09:04:19.485Z,21.90
2019-05-28T09:06:50.293Z,22.00
2019-05-28T09:09:21.118Z,22.00
2019-05-28T09:11:51.977Z,22.20
2019-05-28T09:14:22.793Z,22.30
2019-05-28T09:16:53.529Z,22.50
2019-05-28T09:19:24.486Z,22.70
2019-05-28T09:21:55.320Z,22.90
2019-05-28T09:24:27.882Z,23.10
2019-05-28T09:26:58.538Z,23.40
2019-05-28T09:29:29.536Z,23.50
2019-05-28T09:32:00.354Z,23.60
2019-05-28T09:34:31.429Z,23.60
2019-05-28T09:37:02.365Z,23.60
2019-05-28T09:39:33.149Z,23.50
2019-05-28T09:42:03.968Z,23.30
2019-05-28T09:44:34.810Z,23.20
2019-05-28T09:47:05.561Z,23.00
2019-05-28T09:49:36.301Z,22.90
2019-05-28T09:52:07.123Z,22.80
2019-05-28T09:54:38.007Z,22.80
2019-05-28T09:57:08.921Z,23.00
2019-05-28T09:59:41.863Z,23.20
2019-05-28T10:02:12.157Z,23.50
2019-05-28T10:04:49.425Z,23.60
2019-05-28T10:07:15.535Z,23.90
2019-05-28T10:09:46.469Z,24.20
2019-05-28T10:12:17.233Z,24.60
2019-05-28T10:14:48.078Z,25.10
2019-05-28T10:17:18.870Z,25.40
2019-05-28T10:19:49.678Z,25.60
2019-05-28T10:22:20.473Z,25.80
2019-05-28T10:24:51.290Z,25.90
2019-05-28T10:27:22.169Z,26.00
2019-05-28T10:29:53.022Z,26.10
2019-05-28T10:32:23.929Z,26.20
2019-05-28T10:35:03.744Z,26.00
2019-05-28T10:37:27.108Z,26.00
2019-05-28T10:39:57.838Z,26.00
2019-05-28T10:42:28.706Z,26.20
2019-05-28T10:44:59.497Z,26.30
2019-05-28T10:47:30.246Z,26.40
2019-05-28T10:50:01.002Z,26.70
2019-05-28T10:52:31.885Z,27.00
2019-05-28T10:55:03.095Z,27.10
2019-05-28T10:57:35.359Z,27.20
2019-05-28T11:00:06.985Z,27.20
2019-05-28T11:02:37.898Z,26.90
2019-05-28T11:05:09.784Z,26.30
2019-05-28T11:07:40.574Z,25.60
2019-05-28T11:10:23.812Z,24.90
2019-05-28T11:12:44.122Z,24.40
2019-05-28T11:15:15.749Z,23.80
2019-05-28T11:17:46.556Z,23.40
2019-05-28T11:20:18.486Z,23.00
2019-05-28T11:22:49.269Z,22.70
2019-05-28T11:25:20.309Z,22.50
2019-05-28T11:27:51.331Z,22.40
2019-05-28T11:30:24.240Z,22.30
2019-05-28T11:32:55.134Z,22.20
2019-05-28T11:35:27.794Z,22.20
2019-05-28T11:37:58.572Z,22.10
2019-05-28T11:40:30.191Z,22.00
2019-05-28T11:43:01.149Z,21.90
2019-05-28T11:45:31.953Z,21.60
2019-05-28T11:48:02.978Z,21.30
2019-05-28T11:50:33.811Z,20.80
2019-05-28T11:53:05.374Z,20.30
2019-05-28T11:55:36.190Z,19.90
2019-05-28T11:58:08.853Z,19.50
2019-05-28T12:00:42.622Z,19.30
2019-05-28T12:03:13.448Z,19.10
2019-05-28T12:05:44.718Z,19.00
2019-05-28T12:08:15.582Z,18.90
2019-05-28T12:10:46.526Z,19.00
2019-05-28T12:13:17.270Z,19.00
2019-05-28T12:15:48.078Z,19.00
2019-05-28T12:18:18.925Z,19.20
2019-05-28T12:20:49.765Z,19.40
2019-05-28T12:23:20.558Z,19.50
2019-05-28T12:25:51.836Z,19.80
2019-05-28T12:28:36.889Z,20.00
2019-05-28T12:30:55.048Z,20.30
2019-05-28T12:33:25.861Z,20.60
2019-05-28T12:35:56.640Z,21.00
2019-05-28T12:38:27.763Z,21.40
2019-05-28T12:40:58.565Z,21.70
2019-05-28T12:43:29.398Z,22.10
2019-05-28T12:46:00.100Z,22.40
2019-05-28T12:48:30.938Z,22.60
2019-05-28T12:51:02.398Z,22.90
2019-05-28T12:53:49.277Z,23.00
2019-05-28T12:56:06.055Z,23.10
2019-05-28T12:58:42.605Z,23.10
2019-05-28T13:01:09.524Z,23.20
2019-05-28T13:03:40.405Z,23.30
2019-05-28T13:06:13.234Z,23.30
2019-05-28T13:08:44.169Z,23.30
2019-05-28T13:11:14.898Z,23.40
2019-05-28T13:13:45.730Z,23.30
2019-05-28T13:16:16.664Z,23.20
2019-05-28T13:18:47.958Z,23.00
2019-05-28T13:21:19.101Z,22.80
2019-05-28T13:23:50.265Z,22.60
2019-05-28T13:26:21.113Z,22.50
2019-05-28T13:28:51.932Z,22.30
2019-05-28T13:31:22.724Z,22.10
2019-05-28T13:33:53.529Z,21.90
2019-05-28T13:36:25.461Z,21.80
2019-05-28T13:38:56.589Z,21.80
2019-05-28T13:41:27.387Z,22.00
2019-05-28T13:43:58.292Z,22.20
2019-05-28T13:46:29.081Z,22.40
2019-05-28T13:48:59.905Z,22.40
2019-05-28T13:51:30.768Z,22.50
2019-05-28T13:54:01.666Z,22.60
2019-05-28T13:56:32.544Z,22.50
2019-05-28T13:59:03.296Z,22.40
2019-05-28T14:01:34.161Z,22.30
2019-05-28T14:04:05.186Z,22.30
2019-05-28T14:06:36.117Z,22.30
2019-05-28T14:09:09.150Z,22.40
2019-05-28T14:11:40.101Z,22.40
2019-05-28T14:14:10.953Z,22.40
2019-05-28T14:16:41.718Z,22.40
2019-05-28T14:19:12.879Z,22.50
2019-05-28T14:21:43.673Z,22.60
2019-05-28T14:24:14.517Z,22.50
2019-05-28T14:26:45.772Z,22.50
2019-05-28T14:29:17.102Z,22.50
2019-05-28T14:31:48.347Z,22.50
2019-05-28T14:34:20.278Z,22.50
2019-05-28T14:36:51.118Z,22.40
2019-05-28T14:39:21.957Z,22.50
2019-05-28T14:41:52.749Z,22.50
2019-05-28T14:44:23.594Z,22.50
2019-05-28T14:46:55.340Z,22.50
2019-05-28T14:49:26.634Z,22.50
2019-05-28T14:52:01.165Z,22.40
2019-05-28T14:54:31.995Z,22.30
2019-05-28T14:57:02.822Z,22.20
2019-05-28T14:59:33.625Z,22.10
2019-05-28T15:02:04.435Z,22.00
2019-05-28T15:04:35.270Z,22.00
2019-05-28T15:07:06.129Z,21.90
2019-05-28T15:09:36.889Z,21.80
2019-05-28T15:12:07.697Z,21.70
2019-05-28T15:14:38.546Z,21.50
2019-05-28T15:17:10.423Z,21.30
2019-05-28T15:19:41.542Z,21.10
2019-05-28T15:22:12.410Z,20.90
2019-05-28T15:24:43.197Z,20.60
2019-05-28T15:27:13.981Z,20.40
2019-05-28T15:29:44.807Z,20.30
2019-05-28T15:32:15.634Z,20.30
2019-05-28T15:34:46.449Z,20.30
2019-05-28T15:37:17.549Z,20.30
2019-05-28T15:39:48.677Z,20.30
2019-05-28T15:42:20.774Z,20.40
2019-05-28T15:44:51.930Z,20.50
2019-05-28T15:47:22.671Z,20.60
2019-05-28T15:49:53.461Z,20.80
2019-05-28T15:52:24.243Z,21.00
2019-05-28T15:54:55.066Z,21.10
2019-05-28T15:57:25.887Z,21.20
2019-05-28T15:59:56.693Z,21.30
2019-05-28T16:02:27.540Z,21.50
2019-05-28T16:04:58.321Z,21.50
2019-05-28T16:07:29.109Z,21.50
2019-05-28T16:09:59.849Z,21.50
2019-05-28T16:12:30.595Z,21.50
2019-05-28T16:15:01.413Z,21.30
2019-05-28T16:17:32.270Z,21.30
2019-05-28T16:20:03.052Z,21.20
2019-05-28T16:22:33.918Z,21.00
2019-05-28T16:25:05.835Z,20.90
2019-05-28T16:27:36.719Z,20.80
2019-05-28T16:30:08.402Z,20.70
2019-05-28T16:32:39.434Z,20.60
2019-05-28T16:35:12.261Z,20.50
2019-05-28T16:37:43.296Z,20.50
2019-05-28T16:40:16.206Z,20.50
2019-05-28T16:42:47.093Z,20.40
2019-05-28T16:45:18.471Z,20.40
2019-05-28T16:47:49.350Z,20.30
2019-05-28T16:50:20.791Z,20.20
2019-05-28T16:52:51.669Z,20.20
2019-05-28T16:55:22.517Z,20.10
2019-05-28T16:57:53.686Z,20.00
2019-05-28T17:00:24.660Z,19.90
2019-05-28T17:02:56.074Z,19.80
2019-05-28T17:05:27.017Z,19.70
2019-05-28T17:07:57.980Z,19.60
2019-05-28T17:10:32.943Z,19.50
2019-05-28T17:13:01.901Z,19.40
2019-05-28T17:15:32.785Z,19.30
2019-05-28T17:18:03.754Z,19.20
2019-05-28T17:20:35.293Z,19.00
2019-05-28T17:23:06.248Z,19.00
2019-05-28T17:25:37.194Z,18.90
2019-05-28T17:28:10.985Z,18.90
2019-05-28T17:30:41.897Z,18.80
2019-05-28T17:33:12.898Z,18.80
2019-05-28T17:35:44.047Z,18.70
2019-05-28T17:38:14.933Z,18.60
2019-05-28T17:40:48.724Z,18.60
2019-05-28T17:43:18.698Z,18.60
2019-05-28T17:45:49.652Z,18.50
2019-05-28T17:48:20.560Z,18.50
2019-05-28T17:50:53.222Z,18.40
2019-05-28T17:53:24.305Z,18.40
2019-05-28T17:55:55.252Z,18.30
2019-05-28T17:58:26.179Z,18.20
2019-05-28T18:00:57.095Z,18.10
2019-05-28T18:03:27.990Z,18.00
2019-05-28T18:05:58.868Z,17.90
2019-05-28T18:08:29.884Z,17.80
2019-05-28T18:11:04.786Z,17.70
2019-05-28T18:13:34.510Z,17.50
2019-05-28T18:16:05.525Z,17.40
2019-05-28T18:18:36.487Z,17.30
2019-05-28T18:21:07.788Z,17.20
2019-05-28T18:23:39.809Z,17.10
2019-05-28T18:26:10.673Z,17.00
2019-05-28T18:28:41.583Z,17.00
2019-05-28T18:31:12.451Z,17.00
2019-05-28T18:33:43.639Z,17.00
2019-05-28T18:36:14.548Z,17.00
2019-05-28T18:38:45.497Z,17.00
2019-05-28T18:41:21.401Z,17.00
2019-05-28T18:43:48.911Z,17.10
2019-05-28T18:46:19.774Z,17.00
2019-05-28T18:48:50.765Z,17.00
2019-05-28T18:51:21.759Z,16.90
2019-05-28T18:53:52.688Z,16.80
2019-05-28T18:56:23.611Z,16.70
2019-05-28T18:58:55.903Z,16.60
2019-05-28T19:01:27.770Z,16.50
2019-05-28T19:03:59.501Z,16.40
2019-05-28T19:06:30.792Z,16.30
2019-05-28T19:09:01.753Z,16.20
2019-05-28T19:11:37.850Z,16.10
2019-05-28T19:14:06.827Z,16.10
2019-05-28T19:16:37.857Z,16.00
2019-05-28T19:19:08.738Z,16.00
2019-05-28T19:21:39.690Z,15.90
2019-05-28T19:24:10.734Z,15.90
2019-05-28T19:26:42.697Z,15.90
2019-05-28T19:29:13.648Z,15.80
2019-05-28T19:31:44.571Z,15.80
2019-05-28T19:34:15.450Z,15.80
2019-05-28T19:36:47.493Z,15.80
2019-05-28T19:39:18.525Z,15.80
2019-05-28T19:41:54.312Z,15.80
2019-05-28T19:44:21.987Z,15.70
2019-05-28T19:46:53.104Z,15.60
2019-05-28T19:49:26.189Z,15.50
2019-05-28T19:51:57.017Z,15.50
2019-05-28T19:54:28.041Z,15.50
2019-05-28T19:56:59.036Z,15.50
2019-05-28T19:59:30.057Z,15.50
2019-05-28T20:02:02.151Z,15.50
2019-05-28T20:04:33.162Z,15.50
2019-05-28T20:07:04.118Z,15.60
2019-05-28T20:09:35.215Z,15.60
2019-05-28T20:12:12.572Z,15.50
2019-05-28T20:14:39.795Z,15.60
2019-05-28T20:17:11.797Z,15.60
2019-05-28T20:19:42.698Z,15.60
2019-05-28T20:22:13.604Z,15.50
2019-05-28T20:24:45.558Z,15.50
2019-05-28T20:27:16.641Z,15.40
2019-05-28T20:29:47.532Z,15.50
2019-05-28T20:32:18.544Z,15.50
2019-05-28T20:34:49.448Z,15.50
2019-05-28T20:37:20.415Z,15.50
2019-05-28T20:39:51.258Z,15.40
2019-05-28T20:42:27.156Z,15.30
2019-05-28T20:44:54.725Z,15.30
2019-05-28T20:47:25.671Z,15.20
2019-05-28T20:49:56.613Z,15.10
2019-05-28T20:52:27.493Z,15.00
2019-05-28T20:54:59.166Z,15.00
2019-05-28T20:57:30.764Z,14.90
2019-05-28T21:00:01.597Z,14.90
2019-05-28T21:02:32.597Z,14.90
2019-05-28T21:05:03.794Z,14.80
2019-05-28T21:07:34.755Z,14.70
2019-05-28T21:10:06.156Z,14.70
2019-05-28T21:12:43.710Z,14.60
2019-05-28T21:15:10.939Z,14.50
2019-05-28T21:17:41.873Z,14.40
2019-05-28T21:20:14.730Z,14.30
2019-05-28T21:22:45.624Z,14.20
2019-05-28T21:25:16.982Z,14.10
2019-05-28T21:27:47.854Z,14.10
2019-05-28T21:30:18.850Z,14.00
2019-05-28T21:32:50.634Z,14.00
2019-05-28T21:35:21.587Z,13.90
2019-05-28T21:37:53.075Z,13.90
2019-05-28T21:40:24.047Z,13.80
2019-05-28T21:43:03.709Z,13.80
2019-05-28T21:45:27.403Z,13.80
2019-05-28T21:47:58.554Z,13.70
2019-05-28T21:50:29.654Z,13.70
2019-05-28T21:53:01.151Z,13.70
2019-05-28T21:55:32.192Z,13.60
2019-05-28T21:58:04.078Z,13.60
2019-05-28T22:00:50.915Z,13.50
2019-05-28T22:03:22.198Z,13.60
2019-05-28T22:05:53.064Z,13.50
2019-05-28T22:08:23.963Z,13.50
2019-05-28T22:10:55.519Z,13.40
2019-05-28T22:13:26.778Z,13.40
2019-05-28T22:15:58.061Z,13.40
2019-05-28T22:18:28.904Z,13.30
2019-05-28T22:21:00.298Z,13.30
2019-05-28T22:23:31.250Z,13.20
2019-05-28T22:26:02.643Z,13.20
2019-05-28T22:28:34.692Z,13.20
2019-05-28T22:31:05.700Z,13.10
2019-05-28T22:33:36.538Z,13.10
2019-05-28T22:36:07.570Z,13.10
2019-05-28T22:38:38.531Z,13.10
2019-05-28T22:41:10.939Z,13.10
2019-05-28T22:43:41.785Z,13.00
2019-05-28T22:46:12.696Z,13.00
2019-05-28T22:48:43.669Z,12.90
2019-05-28T22:51:14.803Z,12.80
2019-05-28T22:53:45.745Z,12.80
2019-05-28T22:56:16.638Z,12.70
2019-05-28T22:58:48.522Z,12.70
2019-05-28T23:01:19.359Z,12.70
2019-05-28T23:03:50.277Z,12.60
2019-05-28T23:06:21.131Z,12.60
2019-05-28T23:08:52.038Z,12.60
2019-05-28T23:11:22.849Z,12.50
2019-05-28T23:13:53.693Z,12.50
2019-05-28T23:16:25.004Z,12.50
2019-05-28T23:18:56.266Z,12.40
2019-05-28T23:21:27.208Z,12.50
2019-05-28T23:23:59.560Z,12.50
2019-05-28T23:26:30.466Z,12.60
2019-05-28T23:29:01.634Z,12.60
2019-05-28T23:31:33.083Z,12.60
2019-05-28T23:34:04.338Z,12.60
2019-05-28T23:36:35.285Z,12.60
2019-05-28T23:39:08.987Z,12.50
2019-05-28T23:41:40.080Z,12.50
2019-05-28T23:44:11.656Z,12.50
2019-05-28T23:46:42.568Z,12.40
2019-05-28T23:49:14.376Z,12.40
2019-05-28T23:51:45.378Z,12.30
2019-05-28T23:54:18.120Z,12.30
2019-05-28T23:56:49.109Z,12.30
2019-05-28T23:59:19.898Z,12.20
